KSRQ

Sarasota / Bradenton International Airport

Sarasota/Bradenton, Florida, USA
METAR KSRQ 151853Z 25008KT 10SM CLR 23/14 A2996 RMK AO2 SLP144 T02280139
Observed Flight Rules
Feb-15 @ 18:53 UTC (36 minutes ago) Visual Flight Rules
Wind Visibility Clouds
250° at 8 knots 10 miles
  • Clear skies
Temperatures Readings
Current 23°C / 73°F
Dewpoint 14°C / 57°F
Humidity 57%
Altimeter 29.96" Hg
Pressure 1014.4 hPa
Elevation 18
METAR KSRQ 151853Z 25008KT 10SM CLR 23/14 A2996 RMK AO2 SLP144 T02280139
Observed Flight Rules
Feb-15 @ 18:53 UTC
(36 minutes ago)
VFR
Wind Visibility
250° at 8 knots 10 miles
Clouds
  • Clear skies
Temperature Dewpoint
23°C / 73°F 14°C / 57°F
Humidity Altimeter Pressure
57% 29.96" Hg 1014.4 hPa